Allerton, IL (61810)

6:49 PM CST on December 27, 2014 (GMT -0600)
APRSWXNET Newman IL US | Change Station
CLOSE
Current Station
Personal Weather Station
Location: Newman, IL
Elevation: 649 ft
Nearby Weather Stations

Elev 649 ft 39.80 °N, 87.98 °W | Updated 43 minutes ago

Rain
Rain
36 °F
Feels Like 36 °F
N
2
Wind Variable Wind from WNW
Gusts 7.0 mph

Today
High -- | Low -- °F
--% Chance of Precip.
Yesterday
High -- | Low -- °F
Precip. -- in
7:12 AM 4:33 PM
Waxing Crescent, 42% visible
Pressure 30.14 in
Visibility 2.5 miles
Clouds Few 500 ft
Scattered Clouds 900 ft
Overcast 1900 ft
Windchill 36 °F
Dew Point 34 °F
Humidity 92%
Rainfall 0.02 in
Snow Depth Not available.
UV 0 out of 12
Pollen .10 out of 12
Air Quality Not available.
Flu Activity Not available.
SPECI KCMI 280030Z 27006KT 2 1/2SM -SN BR FEW005 SCT009 OVC019 01/00 A3014 RMK AO2 TWR VIS 3 P0003 T00060000

More Conditions Fewer Conditions

Pressure 30.14 in
Visibility 2.5 miles
Clouds Few 500 ft
Scattered Clouds 900 ft
Overcast 1900 ft
Windchill 36 °F
Dew Point 34 °F
Humidity 92%
Rainfall 0.02 in
Snow Depth Not available.
UV 0 out of 12
Pollen .10 out of 12
Air Quality Not available.
Flu Activity Not available.
SPECI KCMI 280030Z 27006KT 2 1/2SM -SN BR FEW005 SCT009 OVC019 01/00 A3014 RMK AO2 TWR VIS 3 P0003 T00060000

More Conditions Fewer Conditions

10-Day Weather Forecast

Almanac

Astronomy

Dec. 27, 2014 Rise Set
Actual Time
Civil Twilight
Nautical Twilight
Astronomical Twilight
Moon
Length of Visible Light
Length of Day
Tomorrow will be .
, % of the Moon is Illuminated

Today's Extremes

State Highs State Lows

Community

WunderPhotos

Upload Photos

1,781,117 photos uploaded!

WunderBlogs® & News

Nearby

Air Quality

  Air Quality AQ Index Pollutant
Not available.

Snow Depth

Station Depth Elevation

Earthquake Activity

City Distance Mag. Time & Date
Minimum magnitude displayed is 2.5.

Coastal Water Temperatures

Place Temperature

Nearby Weather Stations